sensor_id;sensor_type;location;lat;lon;timestamp;P1;durP1;ratioP1;P2;durP2;ratioP2
72427;SDS011;60419;48.880;18.036;2023-05-16T00:02:26;8.70;;;4.40;;
72427;SDS011;60419;48.880;18.036;2023-05-16T00:05:12;5.75;;;3.03;;
72427;SDS011;60419;48.880;18.036;2023-05-16T00:08:00;4.65;;;3.03;;
72427;SDS011;60419;48.880;18.036;2023-05-16T00:10:45;7.80;;;4.35;;
72427;SDS011;60419;48.880;18.036;2023-05-16T00:13:31;8.82;;;3.83;;
72427;SDS011;60419;48.880;18.036;2023-05-16T00:16:16;5.30;;;2.95;;
72427;SDS011;60419;48.880;18.036;2023-05-16T00:19:02;13.48;;;3.20;;
72427;SDS011;60419;48.880;18.036;2023-05-16T00:21:48;5.40;;;2.83;;
72427;SDS011;60419;48.880;18.036;2023-05-16T00:24:33;5.10;;;2.70;;
72427;SDS011;60419;48.880;18.036;2023-05-16T00:27:19;6.78;;;3.00;;
72427;SDS011;60419;48.880;18.036;2023-05-16T00:30:05;4.88;;;3.38;;
72427;SDS011;60419;48.880;18.036;2023-05-16T00:32:53;6.60;;;3.47;;
72427;SDS011;60419;48.880;18.036;2023-05-16T00:35:39;5.88;;;3.38;;
72427;SDS011;60419;48.880;18.036;2023-05-16T00:38:24;5.97;;;3.70;;
72427;SDS011;60419;48.880;18.036;2023-05-16T00:41:10;6.93;;;2.60;;
72427;SDS011;60419;48.880;18.036;2023-05-16T00:43:55;5.43;;;3.60;;
72427;SDS011;60419;48.880;18.036;2023-05-16T00:46:41;5.72;;;3.17;;
72427;SDS011;60419;48.880;18.036;2023-05-16T00:49:26;5.20;;;3.13;;
72427;SDS011;60419;48.880;18.036;2023-05-16T00:52:12;8.73;;;3.17;;
72427;SDS011;60419;48.880;18.036;2023-05-16T00:54:58;5.60;;;3.67;;
72427;SDS011;60419;48.880;18.036;2023-05-16T00:57:44;6.63;;;3.80;;
72427;SDS011;60419;48.880;18.036;2023-05-16T01:00:29;6.55;;;3.30;;
72427;SDS011;60419;48.880;18.036;2023-05-16T01:03:15;5.82;;;3.50;;
72427;SDS011;60419;48.880;18.036;2023-05-16T01:06:01;6.70;;;3.60;;
72427;SDS011;60419;48.880;18.036;2023-05-16T01:08:46;5.18;;;3.45;;
72427;SDS011;60419;48.880;18.036;2023-05-16T01:17:28;4.95;;;3.58;;
72427;SDS011;60419;48.880;18.036;2023-05-16T01:26:35;7.68;;;4.80;;
72427;SDS011;60419;48.880;18.036;2023-05-16T01:29:21;8.40;;;5.63;;
72427;SDS011;60419;48.880;18.036;2023-05-16T01:32:07;8.43;;;5.97;;
72427;SDS011;60419;48.880;18.036;2023-05-16T01:34:53;13.93;;;6.72;;
72427;SDS011;60419;48.880;18.036;2023-05-16T01:37:40;10.45;;;6.40;;
72427;SDS011;60419;48.880;18.036;2023-05-16T01:43:28;9.45;;;5.80;;
72427;SDS011;60419;48.880;18.036;2023-05-16T01:46:20;10.43;;;6.20;;
72427;SDS011;60419;48.880;18.036;2023-05-16T01:49:19;9.25;;;6.53;;
72427;SDS011;60419;48.880;18.036;2023-05-16T01:52:35;11.30;;;6.25;;
72427;SDS011;60419;48.880;18.036;2023-05-16T01:55:36;10.83;;;6.03;;
72427;SDS011;60419;48.880;18.036;2023-05-16T01:58:22;8.73;;;6.50;;
72427;SDS011;60419;48.880;18.036;2023-05-16T02:01:10;11.85;;;6.13;;
72427;SDS011;60419;48.880;18.036;2023-05-16T02:03:57;10.57;;;5.95;;
72427;SDS011;60419;48.880;18.036;2023-05-16T02:06:43;10.05;;;6.07;;
72427;SDS011;60419;48.880;18.036;2023-05-16T02:09:28;8.55;;;6.18;;
72427;SDS011;60419;48.880;18.036;2023-05-16T02:12:14;9.07;;;5.90;;
72427;SDS011;60419;48.880;18.036;2023-05-16T02:15:00;8.63;;;5.22;;
72427;SDS011;60419;48.880;18.036;2023-05-16T02:17:45;8.40;;;5.55;;
72427;SDS011;60419;48.880;18.036;2023-05-16T02:20:31;9.65;;;5.88;;
72427;SDS011;60419;48.880;18.036;2023-05-16T02:23:17;7.90;;;5.22;;
72427;SDS011;60419;48.880;18.036;2023-05-16T02:26:02;11.27;;;5.60;;
72427;SDS011;60419;48.880;18.036;2023-05-16T02:28:48;9.70;;;6.43;;
72427;SDS011;60419;48.880;18.036;2023-05-16T02:31:34;11.00;;;7.45;;
72427;SDS011;60419;48.880;18.036;2023-05-16T02:34:19;9.68;;;6.68;;
72427;SDS011;60419;48.880;18.036;2023-05-16T02:37:04;10.13;;;7.03;;
72427;SDS011;60419;48.880;18.036;2023-05-16T02:39:50;13.07;;;6.68;;
72427;SDS011;60419;48.880;18.036;2023-05-16T02:42:35;8.98;;;5.50;;
72427;SDS011;60419;48.880;18.036;2023-05-16T02:45:21;8.43;;;5.13;;
72427;SDS011;60419;48.880;18.036;2023-05-16T02:48:06;8.35;;;5.80;;
72427;SDS011;60419;48.880;18.036;2023-05-16T02:50:51;9.77;;;5.97;;
72427;SDS011;60419;48.880;18.036;2023-05-16T02:53:37;10.23;;;6.00;;
72427;SDS011;60419;48.880;18.036;2023-05-16T02:56:22;8.32;;;6.05;;
72427;SDS011;60419;48.880;18.036;2023-05-16T02:59:07;11.60;;;5.80;;
72427;SDS011;60419;48.880;18.036;2023-05-16T03:01:53;9.70;;;5.85;;
72427;SDS011;60419;48.880;18.036;2023-05-16T03:04:38;13.50;;;6.32;;
72427;SDS011;60419;48.880;18.036;2023-05-16T03:07:24;10.35;;;6.38;;
72427;SDS011;60419;48.880;18.036;2023-05-16T03:10:09;12.25;;;6.50;;
72427;SDS011;60419;48.880;18.036;2023-05-16T03:12:55;10.50;;;7.25;;
72427;SDS011;60419;48.880;18.036;2023-05-16T03:15:40;11.68;;;6.85;;
72427;SDS011;60419;48.880;18.036;2023-05-16T03:18:25;9.88;;;6.50;;
72427;SDS011;60419;48.880;18.036;2023-05-16T03:21:11;13.75;;;6.43;;
72427;SDS011;60419;48.880;18.036;2023-05-16T03:23:56;9.15;;;5.82;;
72427;SDS011;60419;48.880;18.036;2023-05-16T03:26:42;8.80;;;6.22;;
72427;SDS011;60419;48.880;18.036;2023-05-16T03:29:27;11.00;;;6.55;;
72427;SDS011;60419;48.880;18.036;2023-05-16T03:32:13;9.13;;;6.22;;
72427;SDS011;60419;48.880;18.036;2023-05-16T03:34:58;11.65;;;6.72;;
72427;SDS011;60419;48.880;18.036;2023-05-16T03:37:44;8.32;;;5.40;;
72427;SDS011;60419;48.880;18.036;2023-05-16T03:40:29;9.70;;;5.75;;
72427;SDS011;60419;48.880;18.036;2023-05-16T03:43:15;9.35;;;5.95;;
72427;SDS011;60419;48.880;18.036;2023-05-16T03:46:00;9.20;;;5.65;;
72427;SDS011;60419;48.880;18.036;2023-05-16T03:48:46;12.20;;;5.97;;
72427;SDS011;60419;48.880;18.036;2023-05-16T03:51:31;9.50;;;6.13;;
72427;SDS011;60419;48.880;18.036;2023-05-16T03:54:17;9.02;;;6.25;;
72427;SDS011;60419;48.880;18.036;2023-05-16T03:57:02;11.77;;;6.57;;
72427;SDS011;60419;48.880;18.036;2023-05-16T03:59:48;10.55;;;7.43;;
72427;SDS011;60419;48.880;18.036;2023-05-16T04:02:33;10.70;;;6.18;;
72427;SDS011;60419;48.880;18.036;2023-05-16T04:05:19;8.63;;;5.35;;
72427;SDS011;60419;48.880;18.036;2023-05-16T04:08:04;9.13;;;6.20;;
72427;SDS011;60419;48.880;18.036;2023-05-16T04:10:49;9.90;;;6.43;;
72427;SDS011;60419;48.880;18.036;2023-05-16T04:13:35;8.65;;;5.93;;
72427;SDS011;60419;48.880;18.036;2023-05-16T04:16:21;10.68;;;6.60;;
72427;SDS011;60419;48.880;18.036;2023-05-16T04:19:06;9.95;;;6.60;;
72427;SDS011;60419;48.880;18.036;2023-05-16T04:21:51;9.57;;;6.70;;
72427;SDS011;60419;48.880;18.036;2023-05-16T04:24:37;11.30;;;6.60;;
72427;SDS011;60419;48.880;18.036;2023-05-16T04:27:22;10.70;;;6.70;;
72427;SDS011;60419;48.880;18.036;2023-05-16T04:30:08;9.90;;;7.32;;
72427;SDS011;60419;48.880;18.036;2023-05-16T04:32:55;12.20;;;7.30;;
72427;SDS011;60419;48.880;18.036;2023-05-16T04:35:43;8.50;;;5.70;;
72427;SDS011;60419;48.880;18.036;2023-05-16T04:38:28;6.85;;;4.90;;
72427;SDS011;60419;48.880;18.036;2023-05-16T04:41:14;8.73;;;5.30;;
72427;SDS011;60419;48.880;18.036;2023-05-16T04:44:00;9.13;;;5.40;;
72427;SDS011;60419;48.880;18.036;2023-05-16T04:46:48;9.40;;;5.97;;
72427;SDS011;60419;48.880;18.036;2023-05-16T04:49:33;8.43;;;5.93;;
72427;SDS011;60419;48.880;18.036;2023-05-16T04:52:19;9.52;;;5.88;;
72427;SDS011;60419;48.880;18.036;2023-05-16T04:55:05;9.77;;;5.50;;
72427;SDS011;60419;48.880;18.036;2023-05-16T04:57:51;12.35;;;6.50;;
72427;SDS011;60419;48.880;18.036;2023-05-16T05:00:37;9.35;;;6.28;;
72427;SDS011;60419;48.880;18.036;2023-05-16T05:03:23;11.77;;;7.57;;
72427;SDS011;60419;48.880;18.036;2023-05-16T05:06:08;13.05;;;7.03;;
72427;SDS011;60419;48.880;18.036;2023-05-16T05:08:53;12.50;;;7.45;;
72427;SDS011;60419;48.880;18.036;2023-05-16T05:11:39;12.85;;;7.82;;
72427;SDS011;60419;48.880;18.036;2023-05-16T05:14:25;12.90;;;7.32;;
72427;SDS011;60419;48.880;18.036;2023-05-16T05:17:10;13.75;;;8.15;;
72427;SDS011;60419;48.880;18.036;2023-05-16T05:19:55;11.23;;;7.22;;
72427;SDS011;60419;48.880;18.036;2023-05-16T05:22:41;11.50;;;7.47;;
72427;SDS011;60419;48.880;18.036;2023-05-16T05:25:26;9.65;;;6.53;;
72427;SDS011;60419;48.880;18.036;2023-05-16T05:28:11;10.23;;;7.00;;
72427;SDS011;60419;48.880;18.036;2023-05-16T05:30:57;8.93;;;6.72;;
72427;SDS011;60419;48.880;18.036;2023-05-16T05:33:42;9.02;;;6.32;;
72427;SDS011;60419;48.880;18.036;2023-05-16T05:36:28;10.70;;;6.38;;
72427;SDS011;60419;48.880;18.036;2023-05-16T05:39:13;9.75;;;5.75;;
72427;SDS011;60419;48.880;18.036;2023-05-16T05:41:59;10.20;;;5.45;;
72427;SDS011;60419;48.880;18.036;2023-05-16T05:44:47;9.15;;;5.55;;
72427;SDS011;60419;48.880;18.036;2023-05-16T05:47:32;9.55;;;5.93;;
72427;SDS011;60419;48.880;18.036;2023-05-16T05:50:18;10.32;;;6.13;;
72427;SDS011;60419;48.880;18.036;2023-05-16T05:53:03;8.00;;;5.82;;
72427;SDS011;60419;48.880;18.036;2023-05-16T05:55:49;8.10;;;5.70;;
72427;SDS011;60419;48.880;18.036;2023-05-16T05:58:34;10.50;;;5.78;;
72427;SDS011;60419;48.880;18.036;2023-05-16T06:01:20;10.48;;;5.70;;
72427;SDS011;60419;48.880;18.036;2023-05-16T06:04:06;8.57;;;5.55;;
72427;SDS011;60419;48.880;18.036;2023-05-16T06:06:51;7.05;;;4.82;;
72427;SDS011;60419;48.880;18.036;2023-05-16T06:09:37;7.65;;;5.18;;
72427;SDS011;60419;48.880;18.036;2023-05-16T06:12:22;7.30;;;4.78;;
72427;SDS011;60419;48.880;18.036;2023-05-16T06:15:08;7.25;;;5.00;;
72427;SDS011;60419;48.880;18.036;2023-05-16T06:17:54;7.18;;;5.25;;
72427;SDS011;60419;48.880;18.036;2023-05-16T06:20:39;8.95;;;4.75;;
72427;SDS011;60419;48.880;18.036;2023-05-16T06:23:24;7.68;;;4.88;;
72427;SDS011;60419;48.880;18.036;2023-05-16T06:26:10;7.38;;;5.00;;
72427;SDS011;60419;48.880;18.036;2023-05-16T06:28:55;7.57;;;4.60;;
72427;SDS011;60419;48.880;18.036;2023-05-16T06:31:41;8.80;;;4.78;;
72427;SDS011;60419;48.880;18.036;2023-05-16T06:34:26;5.68;;;4.18;;
72427;SDS011;60419;48.880;18.036;2023-05-16T06:37:12;8.07;;;4.43;;
72427;SDS011;60419;48.880;18.036;2023-05-16T06:39:57;6.78;;;4.38;;
72427;SDS011;60419;48.880;18.036;2023-05-16T06:42:43;5.82;;;4.40;;
72427;SDS011;60419;48.880;18.036;2023-05-16T06:45:28;8.30;;;4.53;;
72427;SDS011;60419;48.880;18.036;2023-05-16T06:48:14;7.93;;;4.50;;
72427;SDS011;60419;48.880;18.036;2023-05-16T06:50:59;6.10;;;4.07;;
72427;SDS011;60419;48.880;18.036;2023-05-16T06:53:45;9.80;;;4.40;;
72427;SDS011;60419;48.880;18.036;2023-05-16T06:56:31;6.93;;;4.20;;
72427;SDS011;60419;48.880;18.036;2023-05-16T06:59:16;6.43;;;4.10;;
72427;SDS011;60419;48.880;18.036;2023-05-16T07:02:02;5.28;;;3.30;;
72427;SDS011;60419;48.880;18.036;2023-05-16T07:04:47;6.90;;;4.22;;
72427;SDS011;60419;48.880;18.036;2023-05-16T07:07:33;7.70;;;4.00;;
72427;SDS011;60419;48.880;18.036;2023-05-16T07:10:19;6.25;;;3.80;;
72427;SDS011;60419;48.880;18.036;2023-05-16T07:13:05;6.25;;;3.30;;
72427;SDS011;60419;48.880;18.036;2023-05-16T07:15:51;7.18;;;3.53;;
72427;SDS011;60419;48.880;18.036;2023-05-16T07:18:36;7.13;;;3.90;;
72427;SDS011;60419;48.880;18.036;2023-05-16T07:21:22;5.88;;;3.47;;
72427;SDS011;60419;48.880;18.036;2023-05-16T07:24:07;6.88;;;3.65;;
72427;SDS011;60419;48.880;18.036;2023-05-16T07:26:52;5.43;;;3.40;;
72427;SDS011;60419;48.880;18.036;2023-05-16T07:29:38;5.18;;;3.53;;
72427;SDS011;60419;48.880;18.036;2023-05-16T07:32:23;5.20;;;3.75;;
72427;SDS011;60419;48.880;18.036;2023-05-16T07:35:09;5.80;;;3.67;;
72427;SDS011;60419;48.880;18.036;2023-05-16T07:37:54;5.45;;;3.55;;
72427;SDS011;60419;48.880;18.036;2023-05-16T07:40:40;6.97;;;3.75;;
72427;SDS011;60419;48.880;18.036;2023-05-16T07:43:25;5.43;;;3.10;;
72427;SDS011;60419;48.880;18.036;2023-05-16T07:46:11;8.20;;;4.05;;
72427;SDS011;60419;48.880;18.036;2023-05-16T07:48:56;6.60;;;3.90;;
72427;SDS011;60419;48.880;18.036;2023-05-16T07:51:42;6.45;;;4.38;;
72427;SDS011;60419;48.880;18.036;2023-05-16T07:54:27;5.30;;;3.55;;
72427;SDS011;60419;48.880;18.036;2023-05-16T07:57:13;5.20;;;3.92;;
72427;SDS011;60419;48.880;18.036;2023-05-16T07:59:59;7.50;;;4.30;;
72427;SDS011;60419;48.880;18.036;2023-05-16T08:02:44;6.55;;;4.28;;
72427;SDS011;60419;48.880;18.036;2023-05-16T08:05:30;7.88;;;3.40;;
72427;SDS011;60419;48.880;18.036;2023-05-16T08:08:15;7.13;;;3.95;;
72427;SDS011;60419;48.880;18.036;2023-05-16T08:11:01;4.93;;;3.47;;
72427;SDS011;60419;48.880;18.036;2023-05-16T08:13:47;10.13;;;4.18;;
72427;SDS011;60419;48.880;18.036;2023-05-16T08:16:33;6.40;;;4.25;;
72427;SDS011;60419;48.880;18.036;2023-05-16T08:19:19;6.97;;;3.97;;
72427;SDS011;60419;48.880;18.036;2023-05-16T08:22:05;5.53;;;3.65;;
72427;SDS011;60419;48.880;18.036;2023-05-16T08:24:51;5.47;;;3.72;;
72427;SDS011;60419;48.880;18.036;2023-05-16T08:27:38;8.55;;;4.13;;
72427;SDS011;60419;48.880;18.036;2023-05-16T08:30:24;5.32;;;3.75;;
72427;SDS011;60419;48.880;18.036;2023-05-16T08:33:10;6.30;;;3.45;;
72427;SDS011;60419;48.880;18.036;2023-05-16T08:35:55;5.35;;;3.63;;
72427;SDS011;60419;48.880;18.036;2023-05-16T08:38:41;6.03;;;3.50;;
72427;SDS011;60419;48.880;18.036;2023-05-16T08:41:26;5.60;;;3.60;;
72427;SDS011;60419;48.880;18.036;2023-05-16T08:44:11;6.70;;;3.58;;
72427;SDS011;60419;48.880;18.036;2023-05-16T08:47:11;5.50;;;3.85;;
72427;SDS011;60419;48.880;18.036;2023-05-16T08:50:02;6.10;;;3.92;;
72427;SDS011;60419;48.880;18.036;2023-05-16T08:52:50;5.22;;;3.30;;
72427;SDS011;60419;48.880;18.036;2023-05-16T08:55:37;5.65;;;3.70;;
72427;SDS011;60419;48.880;18.036;2023-05-16T08:58:25;5.03;;;3.38;;
72427;SDS011;60419;48.880;18.036;2023-05-16T09:01:12;5.03;;;3.42;;
72427;SDS011;60419;48.880;18.036;2023-05-16T09:03:57;5.30;;;3.30;;
72427;SDS011;60419;48.880;18.036;2023-05-16T09:06:44;5.38;;;3.40;;
72427;SDS011;60419;48.880;18.036;2023-05-16T09:09:29;4.78;;;3.58;;
72427;SDS011;60419;48.880;18.036;2023-05-16T09:12:15;4.88;;;3.40;;
72427;SDS011;60419;48.880;18.036;2023-05-16T09:15:01;5.10;;;3.40;;
72427;SDS011;60419;48.880;18.036;2023-05-16T09:17:48;7.65;;;2.80;;
72427;SDS011;60419;48.880;18.036;2023-05-16T09:20:34;4.10;;;3.10;;
72427;SDS011;60419;48.880;18.036;2023-05-16T09:23:23;5.85;;;3.10;;
72427;SDS011;60419;48.880;18.036;2023-05-16T09:26:08;5.97;;;2.83;;
72427;SDS011;60419;48.880;18.036;2023-05-16T09:28:54;4.10;;;2.95;;
72427;SDS011;60419;48.880;18.036;2023-05-16T09:31:42;7.78;;;2.92;;
72427;SDS011;60419;48.880;18.036;2023-05-16T09:34:27;4.85;;;3.15;;
72427;SDS011;60419;48.880;18.036;2023-05-16T09:37:12;5.03;;;3.03;;
72427;SDS011;60419;48.880;18.036;2023-05-16T09:40:02;4.15;;;2.88;;
72427;SDS011;60419;48.880;18.036;2023-05-16T09:43:00;8.02;;;3.28;;
72427;SDS011;60419;48.880;18.036;2023-05-16T09:45:46;5.85;;;3.30;;
72427;SDS011;60419;48.880;18.036;2023-05-16T09:48:33;6.05;;;3.25;;
72427;SDS011;60419;48.880;18.036;2023-05-16T09:51:20;6.00;;;3.45;;
72427;SDS011;60419;48.880;18.036;2023-05-16T09:54:07;4.82;;;3.67;;
72427;SDS011;60419;48.880;18.036;2023-05-16T09:56:53;5.40;;;3.70;;
72427;SDS011;60419;48.880;18.036;2023-05-16T09:59:39;6.95;;;4.55;;
72427;SDS011;60419;48.880;18.036;2023-05-16T10:02:24;8.40;;;4.18;;
72427;SDS011;60419;48.880;18.036;2023-05-16T10:05:11;7.63;;;4.82;;
72427;SDS011;60419;48.880;18.036;2023-05-16T10:07:57;6.90;;;4.50;;
72427;SDS011;60419;48.880;18.036;2023-05-16T10:10:42;7.80;;;4.90;;
72427;SDS011;60419;48.880;18.036;2023-05-16T10:13:30;6.82;;;4.70;;
72427;SDS011;60419;48.880;18.036;2023-05-16T10:16:16;8.30;;;4.72;;
72427;SDS011;60419;48.880;18.036;2023-05-16T10:19:05;8.95;;;5.10;;
72427;SDS011;60419;48.880;18.036;2023-05-16T10:21:52;7.38;;;5.63;;
72427;SDS011;60419;48.880;18.036;2023-05-16T10:24:47;7.38;;;4.75;;
72427;SDS011;60419;48.880;18.036;2023-05-16T10:27:39;7.72;;;5.38;;
72427;SDS011;60419;48.880;18.036;2023-05-16T10:30:26;6.68;;;4.97;;
72427;SDS011;60419;48.880;18.036;2023-05-16T10:33:12;7.63;;;5.43;;
72427;SDS011;60419;48.880;18.036;2023-05-16T10:35:59;8.30;;;5.63;;
72427;SDS011;60419;48.880;18.036;2023-05-16T10:38:46;11.23;;;5.72;;
72427;SDS011;60419;48.880;18.036;2023-05-16T10:41:32;8.35;;;5.00;;
72427;SDS011;60419;48.880;18.036;2023-05-16T10:44:19;9.98;;;5.25;;
72427;SDS011;60419;48.880;18.036;2023-05-16T10:47:04;12.93;;;5.22;;
72427;SDS011;60419;48.880;18.036;2023-05-16T10:49:50;6.63;;;5.25;;
72427;SDS011;60419;48.880;18.036;2023-05-16T10:52:36;8.20;;;5.47;;
72427;SDS011;60419;48.880;18.036;2023-05-16T10:55:21;7.90;;;5.53;;
72427;SDS011;60419;48.880;18.036;2023-05-16T10:58:07;6.78;;;5.47;;
72427;SDS011;60419;48.880;18.036;2023-05-16T11:01:13;9.35;;;6.63;;
72427;SDS011;60419;48.880;18.036;2023-05-16T11:04:11;9.88;;;5.85;;
72427;SDS011;60419;48.880;18.036;2023-05-16T11:06:56;7.43;;;5.65;;
72427;SDS011;60419;48.880;18.036;2023-05-16T11:09:43;9.55;;;6.25;;
72427;SDS011;60419;48.880;18.036;2023-05-16T11:12:36;8.80;;;5.85;;
72427;SDS011;60419;48.880;18.036;2023-05-16T11:15:23;10.73;;;5.03;;
72427;SDS011;60419;48.880;18.036;2023-05-16T11:18:13;12.35;;;6.43;;
72427;SDS011;60419;48.880;18.036;2023-05-16T11:21:02;11.03;;;5.67;;
72427;SDS011;60419;48.880;18.036;2023-05-16T11:27:12;18.95;;;6.13;;
72427;SDS011;60419;48.880;18.036;2023-05-16T11:32:49;19.13;;;6.03;;
72427;SDS011;60419;48.880;18.036;2023-05-16T11:35:35;15.35;;;7.10;;
72427;SDS011;60419;48.880;18.036;2023-05-16T11:38:21;21.92;;;7.25;;
72427;SDS011;60419;48.880;18.036;2023-05-16T11:41:07;19.85;;;6.22;;
72427;SDS011;60419;48.880;18.036;2023-05-16T11:43:53;17.48;;;6.60;;
72427;SDS011;60419;48.880;18.036;2023-05-16T11:46:38;17.70;;;6.60;;
72427;SDS011;60419;48.880;18.036;2023-05-16T11:49:27;17.60;;;6.88;;
72427;SDS011;60419;48.880;18.036;2023-05-16T11:52:14;15.85;;;7.53;;
72427;SDS011;60419;48.880;18.036;2023-05-16T11:54:59;14.07;;;7.53;;
72427;SDS011;60419;48.880;18.036;2023-05-16T11:57:45;14.27;;;7.00;;
72427;SDS011;60419;48.880;18.036;2023-05-16T12:00:31;11.48;;;7.32;;
72427;SDS011;60419;48.880;18.036;2023-05-16T12:03:17;10.77;;;8.02;;
72427;SDS011;60419;48.880;18.036;2023-05-16T12:06:04;12.90;;;9.15;;
72427;SDS011;60419;48.880;18.036;2023-05-16T12:08:49;12.82;;;10.50;;
72427;SDS011;60419;48.880;18.036;2023-05-16T12:11:39;14.85;;;12.25;;
72427;SDS011;60419;48.880;18.036;2023-05-16T12:14:26;17.40;;;12.45;;
72427;SDS011;60419;48.880;18.036;2023-05-16T12:17:11;18.52;;;12.77;;
72427;SDS011;60419;48.880;18.036;2023-05-16T12:19:57;18.25;;;11.50;;
72427;SDS011;60419;48.880;18.036;2023-05-16T12:22:43;16.65;;;12.68;;
72427;SDS011;60419;48.880;18.036;2023-05-16T12:28:16;17.63;;;12.98;;
72427;SDS011;60419;48.880;18.036;2023-05-16T12:31:01;16.23;;;12.23;;
72427;SDS011;60419;48.880;18.036;2023-05-16T12:33:47;14.45;;;12.02;;
72427;SDS011;60419;48.880;18.036;2023-05-16T12:36:38;16.05;;;12.18;;
72427;SDS011;60419;48.880;18.036;2023-05-16T12:39:23;13.50;;;10.93;;
72427;SDS011;60419;48.880;18.036;2023-05-16T12:42:10;15.00;;;11.88;;
72427;SDS011;60419;48.880;18.036;2023-05-16T12:44:55;14.95;;;11.65;;
72427;SDS011;60419;48.880;18.036;2023-05-16T12:47:41;17.60;;;12.82;;
72427;SDS011;60419;48.880;18.036;2023-05-16T12:50:26;14.93;;;12.40;;
72427;SDS011;60419;48.880;18.036;2023-05-16T12:53:13;16.83;;;11.45;;
72427;SDS011;60419;48.880;18.036;2023-05-16T12:55:59;15.88;;;12.15;;
72427;SDS011;60419;48.880;18.036;2023-05-16T12:58:44;19.75;;;15.70;;
72427;SDS011;60419;48.880;18.036;2023-05-16T13:01:30;15.88;;;12.85;;
72427;SDS011;60419;48.880;18.036;2023-05-16T13:04:15;19.83;;;12.88;;
72427;SDS011;60419;48.880;18.036;2023-05-16T13:07:03;13.75;;;10.57;;
72427;SDS011;60419;48.880;18.036;2023-05-16T13:09:49;13.20;;;11.00;;
72427;SDS011;60419;48.880;18.036;2023-05-16T13:12:38;15.82;;;11.60;;
72427;SDS011;60419;48.880;18.036;2023-05-16T13:15:24;17.25;;;13.32;;
72427;SDS011;60419;48.880;18.036;2023-05-16T13:18:10;24.20;;;15.73;;
72427;SDS011;60419;48.880;18.036;2023-05-16T13:20:55;19.13;;;14.80;;
72427;SDS011;60419;48.880;18.036;2023-05-16T13:23:41;17.77;;;13.10;;
72427;SDS011;60419;48.880;18.036;2023-05-16T13:26:26;22.23;;;14.32;;
72427;SDS011;60419;48.880;18.036;2023-05-16T13:29:11;18.83;;;13.57;;
72427;SDS011;60419;48.880;18.036;2023-05-16T13:31:58;17.90;;;12.35;;
72427;SDS011;60419;48.880;18.036;2023-05-16T13:34:44;14.30;;;11.35;;
72427;SDS011;60419;48.880;18.036;2023-05-16T13:37:29;14.43;;;10.90;;
72427;SDS011;60419;48.880;18.036;2023-05-16T13:40:14;15.10;;;11.63;;
72427;SDS011;60419;48.880;18.036;2023-05-16T13:43:00;14.98;;;11.85;;
72427;SDS011;60419;48.880;18.036;2023-05-16T13:45:45;14.82;;;11.55;;
72427;SDS011;60419;48.880;18.036;2023-05-16T13:48:31;13.95;;;10.25;;
72427;SDS011;60419;48.880;18.036;2023-05-16T13:51:16;13.02;;;10.80;;
72427;SDS011;60419;48.880;18.036;2023-05-16T13:54:01;17.30;;;11.32;;
72427;SDS011;60419;48.880;18.036;2023-05-16T13:56:47;14.35;;;11.13;;
72427;SDS011;60419;48.880;18.036;2023-05-16T13:59:33;15.73;;;11.73;;
72427;SDS011;60419;48.880;18.036;2023-05-16T14:02:18;15.85;;;11.73;;
72427;SDS011;60419;48.880;18.036;2023-05-16T14:05:04;16.25;;;11.13;;
72427;SDS011;60419;48.880;18.036;2023-05-16T14:07:50;12.40;;;9.07;;
72427;SDS011;60419;48.880;18.036;2023-05-16T14:10:36;14.93;;;10.20;;
72427;SDS011;60419;48.880;18.036;2023-05-16T14:13:21;12.93;;;9.88;;
72427;SDS011;60419;48.880;18.036;2023-05-16T14:16:06;12.45;;;9.50;;
72427;SDS011;60419;48.880;18.036;2023-05-16T14:18:52;12.50;;;9.50;;
72427;SDS011;60419;48.880;18.036;2023-05-16T14:21:37;12.10;;;7.90;;
72427;SDS011;60419;48.880;18.036;2023-05-16T14:24:23;10.48;;;6.82;;
72427;SDS011;60419;48.880;18.036;2023-05-16T14:27:08;7.70;;;5.85;;
72427;SDS011;60419;48.880;18.036;2023-05-16T14:29:53;8.57;;;5.95;;
72427;SDS011;60419;48.880;18.036;2023-05-16T14:32:39;7.53;;;5.25;;
72427;SDS011;60419;48.880;18.036;2023-05-16T14:35:25;8.32;;;5.68;;
72427;SDS011;60419;48.880;18.036;2023-05-16T14:38:10;7.45;;;5.18;;
72427;SDS011;60419;48.880;18.036;2023-05-16T14:40:56;6.20;;;4.68;;
72427;SDS011;60419;48.880;18.036;2023-05-16T14:43:41;6.72;;;4.68;;
72427;SDS011;60419;48.880;18.036;2023-05-16T14:46:26;5.95;;;3.25;;
72427;SDS011;60419;48.880;18.036;2023-05-16T14:49:12;6.82;;;4.53;;
72427;SDS011;60419;48.880;18.036;2023-05-16T14:51:57;5.43;;;3.72;;
72427;SDS011;60419;48.880;18.036;2023-05-16T14:54:43;8.07;;;3.58;;
72427;SDS011;60419;48.880;18.036;2023-05-16T14:57:28;6.97;;;4.13;;
72427;SDS011;60419;48.880;18.036;2023-05-16T15:00:14;7.00;;;4.93;;
72427;SDS011;60419;48.880;18.036;2023-05-16T15:03:01;5.90;;;4.63;;
72427;SDS011;60419;48.880;18.036;2023-05-16T15:05:46;7.07;;;4.95;;
72427;SDS011;60419;48.880;18.036;2023-05-16T15:08:32;6.75;;;5.25;;
72427;SDS011;60419;48.880;18.036;2023-05-16T15:11:18;8.27;;;6.10;;
72427;SDS011;60419;48.880;18.036;2023-05-16T15:14:04;7.07;;;5.22;;
72427;SDS011;60419;48.880;18.036;2023-05-16T15:16:50;5.22;;;3.38;;
72427;SDS011;60419;48.880;18.036;2023-05-16T15:19:36;6.43;;;4.68;;
72427;SDS011;60419;48.880;18.036;2023-05-16T15:22:21;7.70;;;5.07;;
72427;SDS011;60419;48.880;18.036;2023-05-16T15:25:07;7.93;;;4.80;;
72427;SDS011;60419;48.880;18.036;2023-05-16T15:27:53;6.18;;;4.53;;
72427;SDS011;60419;48.880;18.036;2023-05-16T15:30:39;9.65;;;4.78;;
72427;SDS011;60419;48.880;18.036;2023-05-16T15:33:24;6.60;;;4.88;;
72427;SDS011;60419;48.880;18.036;2023-05-16T15:36:10;5.68;;;3.97;;
72427;SDS011;60419;48.880;18.036;2023-05-16T15:38:55;7.25;;;6.03;;
72427;SDS011;60419;48.880;18.036;2023-05-16T15:41:41;7.43;;;5.15;;
72427;SDS011;60419;48.880;18.036;2023-05-16T15:44:27;8.30;;;5.70;;
72427;SDS011;60419;48.880;18.036;2023-05-16T15:47:12;10.85;;;6.60;;
72427;SDS011;60419;48.880;18.036;2023-05-16T15:49:57;8.07;;;5.72;;
72427;SDS011;60419;48.880;18.036;2023-05-16T15:52:43;8.20;;;6.75;;
72427;SDS011;60419;48.880;18.036;2023-05-16T15:55:28;8.32;;;5.95;;
72427;SDS011;60419;48.880;18.036;2023-05-16T15:58:14;9.57;;;7.57;;
72427;SDS011;60419;48.880;18.036;2023-05-16T16:00:59;8.98;;;7.13;;
72427;SDS011;60419;48.880;18.036;2023-05-16T16:03:45;10.20;;;6.88;;
72427;SDS011;60419;48.880;18.036;2023-05-16T16:06:30;8.82;;;6.88;;
72427;SDS011;60419;48.880;18.036;2023-05-16T16:09:15;9.40;;;7.43;;
72427;SDS011;60419;48.880;18.036;2023-05-16T16:12:01;10.98;;;8.13;;
72427;SDS011;60419;48.880;18.036;2023-05-16T16:14:46;10.48;;;7.68;;
72427;SDS011;60419;48.880;18.036;2023-05-16T16:17:33;11.05;;;8.30;;
72427;SDS011;60419;48.880;18.036;2023-05-16T16:20:19;11.52;;;7.82;;
72427;SDS011;60419;48.880;18.036;2023-05-16T16:23:04;12.75;;;8.88;;
72427;SDS011;60419;48.880;18.036;2023-05-16T16:25:50;9.48;;;5.22;;
72427;SDS011;60419;48.880;18.036;2023-05-16T16:28:35;12.15;;;7.20;;
72427;SDS011;60419;48.880;18.036;2023-05-16T16:31:20;9.35;;;6.53;;
72427;SDS011;60419;48.880;18.036;2023-05-16T16:34:06;8.90;;;6.80;;
72427;SDS011;60419;48.880;18.036;2023-05-16T16:36:51;9.30;;;7.00;;
72427;SDS011;60419;48.880;18.036;2023-05-16T16:39:37;7.55;;;5.05;;
72427;SDS011;60419;48.880;18.036;2023-05-16T16:42:22;8.77;;;6.38;;
72427;SDS011;60419;48.880;18.036;2023-05-16T16:45:10;12.05;;;6.70;;